Time;durP1;ratioP1;P1;durP2;ratioP2;P2;SDS_P1;SDS_P2;PMS_P1;PMS_P2;Temp;Humidity;BMP_temperature;BMP_pressure;BME280_temperature;BME280_humidity;BME280_pressure;Samples;Min_cycle;Max_cycle;Signal;HPM_P1;HPM_P2
2020/12/30 00:02:31;;;;;;;12.20;6.30;;;-0.20;99.90;;;;;;4981443;28;20100;-93
2020/12/30 00:05:08;;;;;;;9.43;5.13;;;-0.30;99.90;;;;;;5017284;28;20030;-93
2020/12/30 00:07:41;;;;;;;9.88;5.70;;;-0.30;99.90;;;;;;5018258;28;20026;-93
2020/12/30 00:10:22;;;;;;;10.75;5.70;;;-0.20;99.90;;;;;;5001078;28;20044;-92
2020/12/30 00:12:52;;;;;;;11.63;5.43;;;-0.30;99.90;;;;;;5001059;28;20037;-93
2020/12/30 00:15:22;;;;;;;12.80;6.28;;;-0.30;99.90;;;;;;5019032;28;20025;-93
2020/12/30 00:20:50;;;;;;;11.90;6.03;;;-0.30;99.90;;;;;;5004186;28;20118;-93
2020/12/30 00:23:25;;;;;;;10.30;5.53;;;-0.30;99.90;;;;;;4986322;28;20050;-93
2020/12/30 00:25:55;;;;;;;12.07;5.93;;;-0.30;99.90;;;;;;5016618;28;20037;-92
2020/12/30 00:28:26;;;;;;;9.50;5.25;;;-0.30;99.90;;;;;;5039965;28;20022;-92
2020/12/30 00:30:55;;;;;;;15.85;6.55;;;-0.40;99.90;;;;;;5024354;28;20037;-92
2020/12/30 00:33:42;;;;;;;14.82;7.70;;;-0.40;99.90;;;;;;5010399;28;20037;-93
2020/12/30 00:36:12;;;;;;;18.02;7.00;;;-0.40;99.90;;;;;;5023643;28;20034;-93
2020/12/30 00:38:38;;;;;;;10.05;5.38;;;-0.40;99.90;;;;;;5004704;28;20030;-92
2020/12/30 00:41:11;;;;;;;10.82;5.22;;;-0.40;99.90;;;;;;5003000;28;20024;-93
2020/12/30 00:43:41;;;;;;;13.23;6.53;;;-0.50;99.90;;;;;;5020489;28;20073;-91
2020/12/30 00:46:25;;;;;;;15.65;6.75;;;-0.40;99.90;;;;;;5002162;28;20026;-92
2020/12/30 00:48:54;;;;;;;12.77;6.60;;;-0.50;99.90;;;;;;5018958;28;20084;-92
2020/12/30 00:51:28;;;;;;;11.65;5.90;;;-0.40;99.90;;;;;;4997562;28;20038;-92
2020/12/30 00:53:54;;;;;;;13.68;6.50;;;-0.50;99.90;;;;;;5020457;28;20433;-92
2020/12/30 00:56:20;;;;;;;14.40;6.38;;;-0.50;99.90;;;;;;4988347;28;20129;-93
2020/12/30 00:58:54;;;;;;;14.85;7.65;;;-0.50;99.90;;;;;;5006717;28;20045;-93
2020/12/30 01:01:22;;;;;;;12.05;5.93;;;-0.50;99.90;;;;;;5034332;28;20057;-93
2020/12/30 01:03:49;;;;;;;15.00;7.10;;;-0.50;99.90;;;;;;5007491;28;20014;-92
2020/12/30 01:06:19;;;;;;;18.50;7.10;;;-0.50;99.90;;;;;;5022920;28;20057;-91
2020/12/30 01:08:51;;;;;;;17.58;7.68;;;-0.50;99.90;;;;;;4990991;28;20053;-93
2020/12/30 01:11:30;;;;;;;10.07;5.22;;;-0.50;99.90;;;;;;4988676;28;20044;-93
2020/12/30 01:13:57;;;;;;;11.55;5.47;;;-0.50;99.90;;;;;;5002997;28;20029;-93
2020/12/30 01:16:27;;;;;;;15.13;7.80;;;-0.50;99.90;;;;;;5019814;28;20026;-92
2020/12/30 01:18:56;;;;;;;17.25;8.20;;;-0.50;99.90;;;;;;5000428;28;20132;-92
2020/12/30 01:21:22;;;;;;;14.48;7.82;;;-0.50;99.90;;;;;;4984646;28;20115;-91
2020/12/30 01:23:49;;;;;;;10.80;5.38;;;-0.50;99.90;;;;;;5000049;28;20042;-91
2020/12/30 01:26:15;;;;;;;11.82;5.78;;;-0.60;99.90;;;;;;5000285;28;20084;-92
2020/12/30 01:28:47;;;;;;;13.38;7.00;;;-0.60;99.90;;;;;;5000111;28;20471;-92
2020/12/30 01:31:14;;;;;;;13.85;6.45;;;-0.60;99.90;;;;;;5000406;28;20120;-92
2020/12/30 01:33:44;;;;;;;12.50;6.05;;;-0.60;99.90;;;;;;5000535;28;20026;-92
2020/12/30 01:36:12;;;;;;;15.57;6.78;;;-0.70;99.90;;;;;;4984647;28;20057;-90
2020/12/30 01:38:38;;;;;;;13.10;6.45;;;-0.60;99.90;;;;;;5000232;28;20510;-91
2020/12/30 01:41:03;;;;;;;15.75;6.82;;;-0.60;99.90;;;;;;4999705;28;20113;-91
2020/12/30 01:43:32;;;;;;;15.70;6.75;;;-0.60;99.90;;;;;;4999170;28;20174;-90
2020/12/30 01:46:00;;;;;;;14.45;6.70;;;-0.70;99.90;;;;;;4999858;28;20030;-90
2020/12/30 01:48:29;;;;;;;17.00;7.15;;;-0.60;99.90;;;;;;4999008;28;20034;-91
2020/12/30 01:51:03;;;;;;;16.05;7.65;;;-0.60;99.90;;;;;;4999365;28;20062;-90
2020/12/30 01:53:43;;;;;;;16.15;7.35;;;-0.60;99.90;;;;;;5016337;28;20116;-91
2020/12/30 01:56:19;;;;;;;12.45;6.07;;;-0.60;99.90;;;;;;4999329;28;20033;-91
2020/12/30 01:58:46;;;;;;;14.20;7.20;;;-0.60;99.90;;;;;;5015877;28;20022;-91
2020/12/30 02:01:15;;;;;;;18.23;8.02;;;-0.60;99.90;;;;;;4981755;28;20046;-92
2020/12/30 02:03:45;;;;;;;16.80;7.35;;;-0.60;99.90;;;;;;4997676;28;20044;-90
2020/12/30 02:06:14;;;;;;;15.25;7.43;;;-0.60;99.90;;;;;;4998023;28;20113;-91
2020/12/30 02:08:46;;;;;;;21.58;9.20;;;-0.50;99.90;;;;;;4997860;28;20167;-91
2020/12/30 02:11:14;;;;;;;21.55;9.20;;;-0.50;99.90;;;;;;5015691;28;20061;-90
2020/12/30 02:13:48;;;;;;;17.88;8.88;;;-0.40;99.90;;;;;;4997630;28;20064;-90
2020/12/30 02:16:18;;;;;;;19.60;9.00;;;-0.40;99.90;;;;;;4997804;28;20022;-91
2020/12/30 02:18:48;;;;;;;18.77;9.02;;;-0.30;99.90;;;;;;5012917;28;20054;-90
2020/12/30 02:21:20;;;;;;;22.88;9.98;;;-0.30;99.90;;;;;;5014810;28;20041;-91
2020/12/30 02:23:49;;;;;;;12.48;6.68;;;-0.30;99.90;;;;;;5014826;28;20036;-90
2020/12/30 02:26:23;;;;;;;15.52;8.40;;;-0.40;99.90;;;;;;5015433;28;20038;-90
2020/12/30 02:28:50;;;;;;;18.63;8.45;;;-0.40;99.90;;;;;;5016445;28;20029;-90
2020/12/30 02:31:17;;;;;;;15.95;8.18;;;-0.40;99.90;;;;;;4998269;28;20034;-90
2020/12/30 02:33:44;;;;;;;16.65;8.38;;;-0.40;99.90;;;;;;5014287;28;20030;-91
2020/12/30 02:36:10;;;;;;;16.95;8.75;;;-0.50;99.90;;;;;;5014526;28;20022;-91
2020/12/30 02:38:36;;;;;;;25.98;10.88;;;-0.50;99.90;;;;;;5013759;28;20029;-91
2020/12/30 02:41:19;;;;;;;21.38;8.77;;;-0.50;99.90;;;;;;5013544;28;20062;-91
2020/12/30 02:43:48;;;;;;;15.00;7.60;;;-0.50;99.90;;;;;;5013811;28;20045;-91
2020/12/30 02:46:26;;;;;;;16.10;8.10;;;-0.50;99.90;;;;;;5013684;28;20034;-91
2020/12/30 02:49:01;;;;;;;18.85;8.80;;;-0.50;99.90;;;;;;5013218;28;20511;-91
2020/12/30 02:51:46;;;;;;;16.27;7.95;;;-0.50;99.90;;;;;;5011489;28;20061;-92
2020/12/30 02:54:12;;;;;;;23.05;8.85;;;-0.50;99.90;;;;;;5012679;28;20121;-90
2020/12/30 02:56:38;;;;;;;17.63;7.47;;;-0.50;99.90;;;;;;5013438;28;20037;-91
2020/12/30 02:59:09;;;;;;;15.43;7.95;;;-0.60;99.90;;;;;;4997214;28;20125;-91
2020/12/30 03:01:56;;;;;;;18.42;8.55;;;-0.50;99.90;;;;;;5013361;28;20042;-90
2020/12/30 03:04:50;;;;;;;20.92;9.35;;;-0.50;99.90;;;;;;5013318;28;20041;-91
2020/12/30 03:07:24;;;;;;;19.02;8.95;;;-0.50;99.90;;;;;;5011356;28;20073;-91
2020/12/30 03:09:54;;;;;;;17.17;8.60;;;-0.50;99.90;;;;;;5012313;28;20122;-91
2020/12/30 03:12:24;;;;;;;13.43;7.75;;;-0.50;99.90;;;;;;5013151;28;20499;-91
2020/12/30 03:14:53;;;;;;;16.50;7.65;;;-0.60;99.90;;;;;;5013308;28;20509;-92
2020/12/30 03:17:23;;;;;;;16.17;8.32;;;-0.50;99.90;;;;;;5013094;28;20093;-91
2020/12/30 03:19:51;;;;;;;21.23;9.38;;;-0.50;99.90;;;;;;5013337;28;20049;-90
2020/12/30 03:22:22;;;;;;;16.98;7.25;;;-0.50;99.90;;;;;;5013079;28;20495;-92
2020/12/30 03:24:47;;;;;;;18.85;8.88;;;-0.50;99.90;;;;;;4996802;28;20030;-90
2020/12/30 03:27:13;;;;;;;17.85;9.10;;;-0.50;99.90;;;;;;5013142;28;20033;-91
2020/12/30 03:29:40;;;;;;;17.20;7.50;;;-0.50;99.90;;;;;;5013052;28;20072;-90
2020/12/30 03:32:06;;;;;;;18.30;8.73;;;-0.60;99.90;;;;;;5013090;28;20108;-91
2020/12/30 03:34:36;;;;;;;21.30;8.65;;;-0.60;99.90;;;;;;5013197;28;20096;-91
2020/12/30 03:37:04;;;;;;;16.20;8.00;;;-0.60;99.90;;;;;;5013605;28;20026;-90
2020/12/30 03:39:30;;;;;;;15.07;7.40;;;-0.70;99.90;;;;;;5011825;28;20038;-92
2020/12/30 03:41:55;;;;;;;14.10;6.85;;;-0.70;99.90;;;;;;5013980;28;20534;-91
2020/12/30 03:44:21;;;;;;;18.33;7.65;;;-0.70;99.90;;;;;;5013058;28;20117;-91
2020/12/30 03:46:47;;;;;;;16.92;7.70;;;-0.70;99.90;;;;;;5012876;28;20460;-90
2020/12/30 03:49:15;;;;;;;18.95;8.52;;;-0.70;99.90;;;;;;5013289;28;20029;-91
2020/12/30 03:51:43;;;;;;;16.92;8.18;;;-0.70;99.90;;;;;;5012933;28;20034;-90
2020/12/30 03:54:18;;;;;;;16.63;7.22;;;-0.70;99.90;;;;;;5013310;28;20029;-90
2020/12/30 03:56:45;;;;;;;15.07;7.18;;;-0.70;99.90;;;;;;5013442;28;20023;-92
2020/12/30 03:59:13;;;;;;;19.67;8.10;;;-0.70;99.90;;;;;;5013660;28;20029;-92
2020/12/30 04:01:41;;;;;;;17.30;8.57;;;-0.70;99.90;;;;;;5023149;28;20017;-92
2020/12/30 04:04:10;;;;;;;17.73;7.93;;;-0.70;99.90;;;;;;5034637;28;20030;-91
2020/12/30 04:06:35;;;;;;;14.15;7.28;;;-0.70;99.90;;;;;;5035211;28;20030;-91
2020/12/30 04:09:03;;;;;;;17.33;6.32;;;-0.70;99.90;;;;;;5028713;28;20125;-91
2020/12/30 04:11:37;;;;;;;18.23;7.35;;;-0.70;99.90;;;;;;5016575;28;20034;-90
2020/12/30 04:14:05;;;;;;;16.15;7.28;;;-0.70;99.90;;;;;;5014865;28;20049;-91
2020/12/30 04:16:32;;;;;;;18.00;8.63;;;-0.70;99.90;;;;;;5013981;28;20034;-91
2020/12/30 04:18:58;;;;;;;20.13;9.82;;;-0.70;99.90;;;;;;5014699;28;20475;-92
2020/12/30 04:21:29;;;;;;;17.35;8.65;;;-0.80;99.90;;;;;;5014555;28;20037;-91
2020/12/30 04:23:56;;;;;;;18.40;8.73;;;-0.80;99.90;;;;;;4980742;28;20060;-92
2020/12/30 04:26:26;;;;;;;17.35;7.78;;;-0.90;99.90;;;;;;4980582;28;20030;-92
2020/12/30 04:28:53;;;;;;;;;;;-0.90;99.90;;;;;;5014482;28;20026;-92
2020/12/30 04:31:22;;;;;;;22.63;8.68;;;-0.90;99.90;;;;;;4996235;28;19909;-91
2020/12/30 04:33:50;;;;;;;19.27;8.85;;;-0.90;99.90;;;;;;4996523;28;20075;-92
2020/12/30 04:36:17;;;;;;;18.67;7.57;;;-0.90;99.90;;;;;;4995460;28;20500;-92
2020/12/30 04:38:58;;;;;;;17.75;7.80;;;-0.90;99.90;;;;;;5013949;28;20029;-90
2020/12/30 04:41:33;;;;;;;21.23;8.63;;;-0.90;99.90;;;;;;4996591;28;20476;-92
2020/12/30 04:44:15;;;;;;;18.85;8.52;;;-0.80;99.90;;;;;;4980605;28;20684;-90
2020/12/30 04:46:44;;;;;;;17.98;8.88;;;-0.80;99.90;;;;;;4997748;28;20068;-91
2020/12/30 04:49:11;;;;;;;17.83;8.23;;;-0.80;99.90;;;;;;5012919;28;20216;-90
2020/12/30 04:51:52;;;;;;;19.52;8.32;;;-0.80;99.90;;;;;;4998910;28;20048;-91
2020/12/30 04:54:25;;;;;;;23.00;8.05;;;-0.80;99.90;;;;;;5016896;28;20038;-91
2020/12/30 04:57:13;;;;;;;12.57;6.53;;;-0.90;99.90;;;;;;4979332;28;20046;-91
2020/12/30 04:59:50;;;;;;;14.25;6.97;;;-0.90;99.90;;;;;;4999198;28;20036;-91
2020/12/30 05:02:36;;;;;;;13.60;6.45;;;-0.90;99.90;;;;;;4998170;28;20545;-91
2020/12/30 05:05:04;;;;;;;12.90;6.15;;;-0.90;99.90;;;;;;4985718;28;20038;-90
2020/12/30 05:07:34;;;;;;;13.32;6.40;;;-0.90;99.90;;;;;;4980352;28;20042;-90
2020/12/30 05:10:03;;;;;;;22.08;8.55;;;-1.00;99.90;;;;;;5004334;28;20103;-91
2020/12/30 05:12:29;;;;;;;16.88;8.07;;;-1.00;99.90;;;;;;4998665;28;20041;-93
2020/12/30 05:14:55;;;;;;;20.88;8.52;;;-1.00;99.90;;;;;;4999144;28;20026;-92
2020/12/30 05:17:23;;;;;;;24.13;10.35;;;-1.00;99.90;;;;;;5002759;28;20054;-91
2020/12/30 05:19:58;;;;;;;34.15;11.40;;;-1.00;99.90;;;;;;5017663;28;20123;-91
2020/12/30 05:22:25;;;;;;;27.95;11.75;;;-1.00;99.90;;;;;;5014790;28;20037;-90
2020/12/30 05:25:10;;;;;;;38.25;14.27;;;-1.00;99.90;;;;;;5013716;28;20392;-92
2020/12/30 05:27:56;;;;;;;23.95;9.60;;;-0.90;99.90;;;;;;5014879;28;20034;-91
2020/12/30 05:30:27;;;;;;;35.80;12.45;;;-0.80;99.90;;;;;;5014679;28;20395;-90
2020/12/30 05:32:56;;;;;;;;;;;-0.80;99.90;;;;;;5014366;28;20034;-91
2020/12/30 05:35:48;;;;;;;25.00;9.55;;;-0.80;99.90;;;;;;5015388;28;20412;-91
2020/12/30 05:38:39;;;;;;;24.23;10.32;;;-0.90;99.90;;;;;;5015311;28;20491;-91
2020/12/30 05:41:28;;;;;;;34.53;12.02;;;-0.90;99.90;;;;;;5011024;28;20495;-91
2020/12/30 05:43:55;;;;;;;20.05;8.98;;;-0.90;99.90;;;;;;5014120;28;20053;-90
2020/12/30 05:46:37;;;;;;;30.70;11.23;;;-0.90;99.90;;;;;;5015355;28;20034;-92
2020/12/30 05:49:10;;;;;;;23.52;9.50;;;-0.90;99.90;;;;;;5017546;28;20120;-91
2020/12/30 05:51:39;;;;;;;20.20;8.40;;;-0.90;99.90;;;;;;5036232;28;20481;-91
2020/12/30 05:54:15;;;;;;;29.30;11.50;;;-0.90;99.90;;;;;;5035252;28;20034;-91
2020/12/30 05:56:40;;;;;;;28.40;10.63;;;-1.00;99.90;;;;;;5051692;28;20025;-91
2020/12/30 05:59:08;;;;;;;20.77;8.98;;;-1.00;99.90;;;;;;5018091;28;20536;-92
2020/12/30 06:01:38;;;;;;;28.45;11.52;;;-1.00;99.90;;;;;;5033915;28;20042;-91
2020/12/30 06:04:18;;;;;;;28.87;11.23;;;-1.00;99.90;;;;;;5035898;28;20081;-91
2020/12/30 06:06:45;;;;;;;28.37;11.90;;;-0.90;99.90;;;;;;5051999;28;20021;-91
2020/12/30 06:09:16;;;;;;;26.85;11.10;;;-0.90;99.90;;;;;;5051284;28;20032;-90
2020/12/30 06:11:52;;;;;;;29.33;11.75;;;-0.90;99.90;;;;;;5051765;28;20108;-92
2020/12/30 06:14:18;;;;;;;20.35;8.55;;;-0.90;99.90;;;;;;5035189;28;20120;-92
2020/12/30 06:16:47;;;;;;;26.30;11.40;;;-0.80;99.90;;;;;;5051171;28;20029;-91
2020/12/30 06:19:14;;;;;;;21.55;9.35;;;-0.80;99.90;;;;;;5018227;28;20033;-90
2020/12/30 06:21:44;;;;;;;21.33;8.95;;;-0.90;99.90;;;;;;5050994;28;20033;-90
2020/12/30 06:24:16;;;;;;;31.00;12.55;;;-0.90;99.90;;;;;;5051330;28;20022;-91
2020/12/30 06:26:43;;;;;;;30.73;11.63;;;-0.80;99.90;;;;;;5032508;28;20490;-90
2020/12/30 06:29:14;;;;;;;21.85;9.35;;;-0.80;99.90;;;;;;5017705;28;20051;-91
2020/12/30 06:31:43;;;;;;;23.98;10.35;;;-0.80;99.90;;;;;;5018137;28;20075;-91
2020/12/30 06:34:09;;;;;;;24.65;9.95;;;-0.70;99.90;;;;;;5035639;28;20049;-90
2020/12/30 06:36:35;;;;;;;19.55;8.85;;;-0.70;99.90;;;;;;5035382;28;20099;-92
2020/12/30 06:39:18;;;;;;;30.15;12.60;;;-0.60;99.90;;;;;;5051027;28;20406;-91
2020/12/30 06:42:01;;;;;;;31.88;11.95;;;-0.60;99.90;;;;;;5015651;28;20030;-91
2020/12/30 06:44:39;;;;;;;23.75;9.73;;;-0.50;99.90;;;;;;5017780;28;20040;-90
2020/12/30 06:47:06;;;;;;;25.63;10.10;;;-0.50;99.90;;;;;;5017848;28;20100;-92
2020/12/30 06:49:32;;;;;;;23.63;10.73;;;-0.40;99.90;;;;;;5018221;28;20486;-92
2020/12/30 06:51:58;;;;;;;34.45;13.13;;;-0.40;99.90;;;;;;5018421;28;20093;-92
2020/12/30 06:54:44;;;;;;;22.10;9.80;;;-0.40;99.90;;;;;;5017871;28;20057;-93
2020/12/30 06:57:38;;;;;;;24.42;8.80;;;-0.30;99.90;;;;;;5051162;28;20029;-91
2020/12/30 07:00:38;;;;;;;28.98;10.63;;;-0.30;99.90;;;;;;5007764;28;20099;-90
2020/12/30 07:03:22;;;;;;;32.10;13.13;;;-0.30;99.90;;;;;;5003643;28;20041;-91
2020/12/30 07:05:52;;;;;;;30.52;12.65;;;-0.30;99.90;;;;;;5018267;28;20053;-91
2020/12/30 07:08:41;;;;;;;27.48;11.45;;;-0.20;99.90;;;;;;5022767;28;20033;-93
2020/12/30 07:11:08;;;;;;;33.70;12.55;;;-0.30;99.90;;;;;;5003703;28;20074;-92
2020/12/30 07:13:40;;;;;;;37.55;15.38;;;-0.20;99.90;;;;;;4995479;28;20113;-92
2020/12/30 07:16:19;;;;;;;31.73;13.23;;;-0.20;99.90;;;;;;5023872;28;20037;-92
2020/12/30 07:18:49;;;;;;;29.92;12.45;;;-0.20;99.90;;;;;;5023256;28;20056;-91
2020/12/30 07:21:16;;;;;;;32.38;12.70;;;-0.20;99.90;;;;;;5024982;28;20026;-92
2020/12/30 07:23:43;;;;;;;30.75;12.20;;;-0.20;99.90;;;;;;5025525;28;20050;-92
2020/12/30 07:26:27;;;;;;;29.52;11.60;;;-0.20;99.90;;;;;;5025333;28;20109;-91
2020/12/30 07:28:57;;;;;;;31.13;14.00;;;-0.20;99.90;;;;;;5021000;28;20036;-91
2020/12/30 07:31:24;;;;;;;24.40;11.15;;;-0.20;99.90;;;;;;5029574;28;20088;-90
2020/12/30 07:33:51;;;;;;;30.10;12.02;;;-0.10;99.90;;;;;;5024869;28;20071;-91
2020/12/30 07:36:20;;;;;;;27.35;11.35;;;-0.10;99.90;;;;;;5040541;28;20033;-90
2020/12/30 07:38:49;;;;;;;26.30;10.67;;;-0.10;99.90;;;;;;5038090;28;20069;-91
2020/12/30 07:41:25;;;;;;;30.02;11.93;;;0.00;99.90;;;;;;5028756;28;20057;-94
2020/12/30 07:43:52;;;;;;;28.55;10.85;;;0.00;99.90;;;;;;5053158;28;20030;-92
2020/12/30 07:46:31;;;;;;;30.98;12.50;;;0.00;99.90;;;;;;5019802;28;20033;-92
2020/12/30 07:49:22;;;;;;;21.92;10.52;;;0.00;99.90;;;;;;5029813;28;20052;-92
2020/12/30 07:51:54;;;;;;;34.80;14.32;;;0.10;99.90;;;;;;5047566;28;20036;-90
2020/12/30 07:54:24;;;;;;;23.27;10.27;;;0.10;99.90;;;;;;5019900;28;20025;-91
2020/12/30 07:56:52;;;;;;;32.65;14.75;;;0.10;99.90;;;;;;5019079;28;20030;-91
2020/12/30 07:59:25;;;;;;;24.85;10.48;;;0.10;99.90;;;;;;5041518;28;20452;-91
2020/12/30 08:02:13;;;;;;;34.97;13.27;;;0.10;99.90;;;;;;5022921;28;20042;-91
2020/12/30 08:04:50;;;;;;;30.45;12.65;;;0.10;99.90;;;;;;5026831;28;20033;-91
2020/12/30 08:07:17;;;;;;;26.67;11.88;;;0.00;99.90;;;;;;5023577;28;20063;-91
2020/12/30 08:09:51;;;;;;;31.55;13.75;;;0.00;99.90;;;;;;5023166;28;20050;-91
2020/12/30 08:12:17;;;;;;;24.42;10.52;;;0.00;99.90;;;;;;5022456;28;20471;-92
2020/12/30 08:14:52;;;;;;;33.63;14.00;;;0.00;99.90;;;;;;5029036;28;20033;-91
2020/12/30 08:17:23;;;;;;;31.02;13.38;;;0.00;99.90;;;;;;5027988;28;20052;-90
2020/12/30 08:19:52;;;;;;;31.60;12.02;;;0.10;99.90;;;;;;5028510;28;20026;-91
2020/12/30 08:22:30;;;;;;;31.35;13.25;;;0.10;99.90;;;;;;5023006;28;20061;-92
2020/12/30 08:25:00;;;;;;;26.15;10.90;;;0.20;99.90;;;;;;5033867;28;20084;-91
2020/12/30 08:27:27;;;;;;;27.70;10.82;;;0.20;99.90;;;;;;5019153;28;20026;-93
2020/12/30 08:29:57;;;;;;;31.65;11.80;;;0.20;99.90;;;;;;5020185;28;20080;-91
2020/12/30 08:32:50;;;;;;;29.02;11.45;;;0.30;99.90;;;;;;5018045;28;20050;-90
2020/12/30 08:35:33;;;;;;;24.77;10.98;;;0.40;99.90;;;;;;5017916;28;20377;-92
2020/12/30 08:38:12;;;;;;;25.00;10.13;;;0.40;99.90;;;;;;5017760;28;20395;-91
2020/12/30 08:40:55;;;;;;;23.60;10.38;;;0.50;99.90;;;;;;5018171;28;20034;-91
2020/12/30 08:43:46;;;;;;;22.55;11.10;;;0.50;99.90;;;;;;5019239;28;20088;-92
2020/12/30 08:46:24;;;;;;;24.25;10.05;;;0.60;99.90;;;;;;5036072;28;20037;-92
2020/12/30 08:48:51;;;;;;;21.98;10.32;;;0.60;99.90;;;;;;5024812;28;20121;-92
2020/12/30 08:51:33;;;;;;;21.88;10.27;;;0.60;99.90;;;;;;5026492;28;20029;-91
2020/12/30 08:53:59;;;;;;;19.65;10.00;;;0.70;99.90;;;;;;5051755;28;20093;-91
2020/12/30 08:56:27;;;;;;;23.63;9.88;;;0.70;99.90;;;;;;5027335;28;20037;-91
2020/12/30 08:59:00;;;;;;;21.48;9.80;;;0.70;99.90;;;;;;5048040;28;20025;-91
2020/12/30 09:01:27;;;;;;;23.63;9.77;;;0.70;99.90;;;;;;5025969;28;20029;-91
2020/12/30 09:03:53;;;;;;;22.75;9.38;;;0.80;99.90;;;;;;5030483;28;20041;-90
2020/12/30 09:06:29;;;;;;;21.42;10.32;;;0.80;99.90;;;;;;5024621;28;20026;-92
2020/12/30 09:09:19;;;;;;;20.73;8.98;;;0.80;99.90;;;;;;5045336;28;20018;-91
2020/12/30 09:11:50;;;;;;;18.77;8.20;;;0.90;99.90;;;;;;5044394;28;20036;-92
2020/12/30 09:14:17;;;;;;;20.02;9.00;;;0.90;99.90;;;;;;5027213;28;20017;-90
2020/12/30 09:17:06;;;;;;;21.42;8.93;;;0.90;99.90;;;;;;5026121;28;20021;-90
2020/12/30 09:19:35;;;;;;;17.50;7.93;;;0.90;99.90;;;;;;5025258;28;20049;-92
2020/12/30 09:22:12;;;;;;;19.02;7.93;;;0.90;99.90;;;;;;5035329;28;20087;-91
2020/12/30 09:24:44;;;;;;;19.77;8.77;;;1.00;99.90;;;;;;5017207;28;20038;-92
2020/12/30 09:27:35;;;;;;;14.05;7.43;;;1.00;99.90;;;;;;5037147;28;20025;-92
2020/12/30 09:30:23;;;;;;;16.15;7.10;;;1.00;99.90;;;;;;5043218;28;20025;-92
2020/12/30 09:32:52;;;;;;;23.55;7.28;;;1.10;99.90;;;;;;5038517;28;20029;-95
2020/12/30 09:35:24;;;;;;;18.83;8.15;;;1.10;99.90;;;;;;5041729;28;20028;-94
2020/12/30 09:37:57;;;;;;;16.35;6.80;;;1.10;99.90;;;;;;5040202;28;20025;-94
2020/12/30 09:40:24;;;;;;;17.30;7.70;;;1.10;99.90;;;;;;5042274;28;20063;-93
2020/12/30 09:42:50;;;;;;;19.27;7.82;;;1.10;99.90;;;;;;5025770;28;20045;-93
2020/12/30 09:45:19;;;;;;;18.38;7.68;;;1.10;99.90;;;;;;5039566;28;20029;-94
2020/12/30 09:47:46;;;;;;;21.52;7.95;;;1.10;99.90;;;;;;5041145;28;20101;-93
2020/12/30 09:50:17;;;;;;;24.45;9.45;;;1.20;99.90;;;;;;5045776;28;20052;-95
2020/12/30 09:52:45;;;;;;;17.92;9.35;;;1.20;99.90;;;;;;5044874;28;20036;-95
2020/12/30 09:55:14;;;;;;;30.00;10.50;;;1.20;99.90;;;;;;5045718;28;20327;-95
2020/12/30 09:57:44;;;;;;;20.42;9.77;;;1.20;99.90;;;;;;5027203;28;20057;-95
2020/12/30 10:00:11;;;;;;;23.70;10.50;;;1.30;99.90;;;;;;5048732;28;20047;-93
2020/12/30 10:02:38;;;;;;;14.20;7.65;;;1.30;99.90;;;;;;5051201;28;20049;-95
2020/12/30 10:05:05;;;;;;;18.92;7.40;;;1.30;99.90;;;;;;5049685;28;20064;-95
2020/12/30 10:07:34;;;;;;;21.17;10.20;;;1.40;99.90;;;;;;5051728;28;20049;-93
2020/12/30 10:10:02;;;;;;;31.40;11.25;;;1.40;99.90;;;;;;5033447;28;20025;-95
2020/12/30 10:12:30;;;;;;;30.20;11.73;;;1.50;99.90;;;;;;5051786;28;20036;-95
2020/12/30 10:14:59;;;;;;;27.55;11.18;;;1.50;99.90;;;;;;5047899;28;20025;-96
2020/12/30 10:17:25;;;;;;;30.55;12.82;;;1.50;99.90;;;;;;5041744;28;20038;-96
2020/12/30 10:19:52;;;;;;;30.65;11.93;;;1.50;99.90;;;;;;5021709;28;20120;-96
2020/12/30 10:22:18;;;;;;;30.40;10.70;;;1.50;99.90;;;;;;5041038;28;20511;-96
2020/12/30 10:24:44;;;;;;;24.90;7.88;;;1.50;99.90;;;;;;5024859;28;20032;-94
2020/12/30 10:27:13;;;;;;;27.50;12.48;;;1.50;99.90;;;;;;5023456;28;20045;-95
2020/12/30 10:29:40;;;;;;;30.95;11.48;;;1.50;99.90;;;;;;5023486;28;20025;-96
2020/12/30 10:32:06;;;;;;;25.88;10.77;;;1.40;99.90;;;;;;5023076;28;20029;-95
2020/12/30 10:34:32;;;;;;;25.42;10.75;;;1.50;99.90;;;;;;5023814;28;20031;-96
2020/12/30 10:36:58;;;;;;;33.55;11.57;;;1.50;99.90;;;;;;5022700;28;20033;-95
2020/12/30 10:39:24;;;;;;;34.25;12.52;;;1.50;99.90;;;;;;5021003;28;20051;-96
2020/12/30 10:41:54;;;;;;;24.08;11.05;;;1.50;99.90;;;;;;5021471;28;20096;-96
2020/12/30 10:44:20;;;;;;;30.00;12.70;;;1.50;99.90;;;;;;5022359;28;20021;-95
2020/12/30 10:46:46;;;;;;;30.33;10.63;;;1.50;99.90;;;;;;5021126;28;20034;-95
2020/12/30 10:49:12;;;;;;;31.60;12.05;;;1.50;99.90;;;;;;5020811;28;20037;-94
2020/12/30 10:51:38;;;;;;;26.35;10.90;;;1.60;99.90;;;;;;5039006;28;20390;-95
2020/12/30 10:54:04;;;;;;;27.48;12.05;;;1.50;99.90;;;;;;5022422;28;20032;-96
2020/12/30 10:56:30;;;;;;;26.73;10.57;;;1.60;99.90;;;;;;5020727;28;20025;-95
2020/12/30 10:58:56;;;;;;;24.95;10.57;;;1.70;99.90;;;;;;5019731;28;20028;-94
2020/12/30 11:01:21;;;;;;;23.15;10.15;;;1.70;99.90;;;;;;5019401;28;20030;-95
2020/12/30 11:03:47;;;;;;;28.15;10.40;;;1.70;99.90;;;;;;5025742;28;20024;-92
2020/12/30 11:06:19;;;;;;;16.17;7.47;;;1.80;99.90;;;;;;5039488;28;20069;-94
2020/12/30 11:08:48;;;;;;;27.27;10.65;;;1.90;99.90;;;;;;5041455;28;20036;-93
2020/12/30 11:11:19;;;;;;;22.35;9.77;;;2.00;99.90;;;;;;5041652;28;20085;-94
2020/12/30 11:13:58;;;;;;;16.67;8.88;;;2.00;99.90;;;;;;5058041;28;20024;-95
2020/12/30 11:16:49;;;;;;;19.55;9.75;;;2.10;99.90;;;;;;5056925;28;20029;-95
2020/12/30 11:19:26;;;;;;;20.38;9.80;;;2.20;99.90;;;;;;5051140;28;20050;-96
2020/12/30 11:21:58;;;;;;;20.45;9.15;;;2.30;99.90;;;;;;5051285;28;20049;-96
2020/12/30 11:24:28;;;;;;;22.20;8.95;;;2.30;99.90;;;;;;5048501;28;20026;-96
2020/12/30 11:26:57;;;;;;;17.50;7.95;;;2.40;99.90;;;;;;5042748;28;20025;-96
2020/12/30 11:30:11;;;;;;;17.92;8.98;;;2.50;99.90;;;;;;5040693;28;20033;-94
2020/12/30 11:32:50;;;;;;;17.55;7.97;;;2.50;99.90;;;;;;5052173;28;20410;-95
2020/12/30 11:35:21;;;;;;;15.38;7.22;;;2.60;99.90;;;;;;5044399;28;20034;-95
2020/12/30 11:37:53;;;;;;;19.65;7.28;;;2.70;99.90;;;;;;5048036;28;20033;-96
2020/12/30 11:40:31;;;;;;;12.60;6.35;;;2.70;99.90;;;;;;5047768;28;20032;-95
2020/12/30 11:43:02;;;;;;;16.63;6.80;;;2.80;99.90;;;;;;5049472;28;20044;-96
2020/12/30 11:45:49;;;;;;;16.00;6.88;;;2.90;99.90;;;;;;5048033;28;20030;-95
2020/12/30 11:48:20;;;;;;;14.45;6.53;;;3.00;99.90;;;;;;5046926;28;20041;-95
2020/12/30 11:50:56;;;;;;;16.25;7.50;;;3.00;99.90;;;;;;5044893;28;20025;-95
2020/12/30 11:53:23;;;;;;;15.20;6.95;;;3.00;99.90;;;;;;5043707;28;20029;-96
2020/12/30 11:56:01;;;;;;;19.52;8.45;;;2.90;99.90;;;;;;5043385;28;20032;-95
2020/12/30 11:58:37;;;;;;;15.52;6.72;;;2.90;99.90;;;;;;5040745;28;20033;-96
2020/12/30 12:01:03;;;;;;;17.15;7.00;;;2.80;99.90;;;;;;5045771;28;20025;-96
2020/12/30 12:03:35;;;;;;;14.35;6.10;;;2.80;99.90;;;;;;5047606;28;20064;-96
2020/12/30 12:06:00;;;;;;;11.88;6.20;;;2.80;99.90;;;;;;5043213;28;20037;-96
2020/12/30 12:08:26;;;;;;;20.48;8.45;;;2.80;99.90;;;;;;5041511;28;20378;-94
2020/12/30 12:10:51;;;;;;;16.98;6.55;;;2.70;99.90;;;;;;5033549;28;20443;-94
2020/12/30 12:13:17;;;;;;;18.30;6.07;;;2.80;99.90;;;;;;5024493;28;20030;-95
2020/12/30 12:15:43;;;;;;;13.40;6.03;;;2.80;99.90;;;;;;5018418;28;20026;-94
2020/12/30 12:18:08;;;;;;;15.95;6.82;;;2.80;99.90;;;;;;5020923;28;20049;-94
2020/12/30 12:20:34;;;;;;;17.38;6.03;;;2.90;99.90;;;;;;5027088;28;20032;-94
2020/12/30 12:23:03;;;;;;;21.63;8.30;;;2.90;99.90;;;;;;5029745;28;20117;-95
2020/12/30 12:25:29;;;;;;;21.80;6.22;;;2.90;99.90;;;;;;5028229;28;20423;-95
2020/12/30 12:27:55;;;;;;;12.98;5.35;;;2.90;99.90;;;;;;5026165;28;20179;-94
2020/12/30 12:30:21;;;;;;;11.55;5.40;;;2.90;99.90;;;;;;5025297;28;20056;-94
2020/12/30 12:32:46;;;;;;;13.55;5.28;;;2.90;99.90;;;;;;5025642;28;20543;-92
2020/12/30 12:35:12;;;;;;;13.73;5.78;;;3.00;99.90;;;;;;5022808;28;20036;-94
2020/12/30 12:37:37;;;;;;;11.05;5.13;;;2.90;99.90;;;;;;5024173;28;20033;-93
2020/12/30 12:40:04;;;;;;;12.80;6.10;;;3.00;99.90;;;;;;5040828;28;20037;-94
2020/12/30 12:42:30;;;;;;;16.65;6.53;;;3.00;99.90;;;;;;5043948;28;20025;-93
2020/12/30 12:44:55;;;;;;;16.25;6.13;;;3.00;99.90;;;;;;5036252;28;20026;-93
2020/12/30 12:47:21;;;;;;;15.80;7.45;;;3.00;99.90;;;;;;5033859;28;20029;-93
2020/12/30 12:49:47;;;;;;;20.42;6.18;;;3.00;99.90;;;;;;5032605;28;20021;-93
2020/12/30 12:52:13;;;;;;;12.80;6.10;;;3.10;99.90;;;;;;5032959;28;20437;-94
2020/12/30 12:54:39;;;;;;;15.98;6.40;;;3.00;99.90;;;;;;5033268;28;20103;-93
2020/12/30 12:57:06;;;;;;;19.05;6.35;;;3.10;99.90;;;;;;5032488;28;20056;-94
2020/12/30 12:59:33;;;;;;;14.40;7.15;;;3.10;99.90;;;;;;5029893;28;20022;-93
2020/12/30 13:01:59;;;;;;;17.38;7.22;;;3.10;99.90;;;;;;5036078;28;20490;-93
2020/12/30 13:04:25;;;;;;;18.38;8.02;;;3.20;99.90;;;;;;5030035;28;20033;-94